Time;durP1;ratioP1;P1;durP2;ratioP2;P2;SDS_P1;SDS_P2;PMS_P1;PMS_P2;Temp;Humidity;BMP_temperature;BMP_pressure;BME280_temperature;BME280_humidity;BME280_pressure;Samples;Min_cycle;Max_cycle;Signal;HPM_P1;HPM_P2
2023/06/20 00:02:02;;;;;;;3.05;1.70;;;;;;;22.00;49.46;99511.50;10511531;28;20136;-67
2023/06/20 00:07:04;;;;;;;2.35;1.48;;;;;;;21.87;50.45;99506.75;10512024;28;20138;-67
2023/06/20 00:12:06;;;;;;;2.25;1.40;;;;;;;21.70;50.72;99515.81;10508445;28;20032;-67
2023/06/20 00:17:09;;;;;;;3.25;1.80;;;;;;;21.61;51.19;99532.81;10512749;28;20054;-67
2023/06/20 00:22:10;;;;;;;2.72;1.67;;;;;;;21.49;51.79;99539.50;10526047;28;20044;-67
2023/06/20 00:27:12;;;;;;;3.25;1.42;;;;;;;21.38;52.46;99553.13;10512678;28;20085;-67
2023/06/20 00:32:14;;;;;;;3.13;1.80;;;;;;;21.29;52.45;99557.63;10511579;28;20121;-67
2023/06/20 00:37:16;;;;;;;2.75;1.63;;;;;;;21.14;53.72;99575.25;10512102;28;20080;-67
2023/06/20 00:42:23;;;;;;;3.30;1.70;;;;;;;20.93;54.40;99572.25;10493213;28;20170;-67
2023/06/20 00:47:24;;;;;;;2.85;1.95;;;;;;;20.51;55.33;99569.72;10492851;28;20061;-67
2023/06/20 00:52:27;;;;;;;3.78;1.77;;;;;;;20.69;55.36;99557.16;10488265;28;20059;-67
2023/06/20 00:57:29;;;;;;;2.85;1.75;;;;;;;20.51;55.22;99545.81;10509781;28;20036;-67
2023/06/20 01:02:30;;;;;;;2.10;1.50;;;;;;;20.57;55.54;99542.50;10489412;28;20050;-66
2023/06/20 01:07:58;;;;;;;3.03;1.67;;;;;;;20.51;57.23;99539.66;10503962;28;20044;-67
2023/06/20 01:13:33;;;;;;;3.10;1.70;;;;;;;20.39;55.90;99539.16;10462394;28;20044;-67
2023/06/20 01:18:55;;;;;;;2.80;1.75;;;;;;;20.49;57.48;99533.69;10463540;28;20096;-67
2023/06/20 01:24:05;;;;;;;4.50;1.70;;;;;;;20.54;57.48;99547.31;10491742;28;20044;-67
2023/06/20 01:29:15;;;;;;;2.30;1.45;;;;;;;20.52;57.94;99528.84;10510377;28;20287;-67
2023/06/20 01:34:27;;;;;;;3.78;1.88;;;;;;;20.40;57.74;99522.19;10490535;28;20492;-66
2023/06/20 01:39:41;;;;;;;2.90;1.63;;;;;;;19.97;58.24;99520.59;10490964;28;20261;-66
2023/06/20 01:44:46;;;;;;;4.53;1.80;;;;;;;19.96;57.58;99511.00;10491853;28;20100;-68
2023/06/20 01:49:51;;;;;;;2.40;1.60;;;;;;;19.83;58.38;99507.13;10460748;28;20044;-66
2023/06/20 01:54:54;;;;;;;2.90;1.80;;;;;;;20.03;58.19;99501.38;10474394;28;20385;-66
2023/06/20 01:59:58;;;;;;;3.53;1.80;;;;;;;19.85;57.87;99503.31;10480717;28;20126;-66
2023/06/20 02:05:01;;;;;;;2.83;1.65;;;;;;;19.91;58.40;99502.69;10494300;28;20036;-66
2023/06/20 02:10:05;;;;;;;3.28;1.65;;;;;;;20.08;58.94;99506.22;10496772;28;20051;-66
2023/06/20 02:15:10;;;;;;;3.08;1.90;;;;;;;20.28;58.58;99508.41;10497097;28;20126;-66
2023/06/20 02:20:12;;;;;;;3.65;1.70;;;;;;;20.36;58.70;99512.91;10514526;28;20101;-66
2023/06/20 02:25:24;;;;;;;4.30;2.20;;;;;;;20.28;59.93;99511.06;10515864;28;20086;-66
2023/06/20 02:30:30;;;;;;;3.30;1.75;;;;;;;20.21;58.85;99503.94;10514835;28;20491;-66
2023/06/20 02:35:33;;;;;;;3.25;1.85;;;;;;;20.16;59.31;99500.91;10514019;28;20479;-67
2023/06/20 02:40:36;;;;;;;5.10;1.98;;;;;;;19.96;59.05;99502.19;10497460;28;20140;-66
2023/06/20 02:45:38;;;;;;;3.05;1.65;;;;;;;19.90;59.39;99501.03;10529832;28;20036;-67
2023/06/20 02:51:14;;;;;;;3.42;1.95;;;;;;;19.74;60.58;99489.50;10495090;28;20134;-66
2023/06/20 02:56:17;;;;;;;3.53;2.05;;;;;;;19.86;60.20;99499.69;10513995;28;20089;-67
2023/06/20 03:01:23;;;;;;;3.35;1.83;;;;;;;19.80;59.83;99502.97;10513067;28;20492;-66
2023/06/20 03:06:29;;;;;;;5.25;1.90;;;;;;;19.75;59.96;99501.75;10508756;28;20136;-67
2023/06/20 03:11:31;;;;;;;3.03;1.80;;;;;;;19.62;60.53;99504.03;10507011;28;20384;-67
2023/06/20 03:16:33;;;;;;;4.53;2.13;;;;;;;19.79;60.47;99503.09;10505665;28;20047;-67
2023/06/20 03:21:38;;;;;;;3.70;2.08;;;;;;;19.91;60.20;99504.53;10483158;28;20127;-67
2023/06/20 03:26:41;;;;;;;5.30;2.10;;;;;;;19.97;60.36;99501.22;10480489;28;20044;-66
2023/06/20 03:31:44;;;;;;;2.95;1.67;;;;;;;19.89;60.60;99502.00;10492425;28;20683;-67
2023/06/20 03:36:46;;;;;;;3.35;1.88;;;;;;;19.92;60.80;99507.00;10514343;28;20093;-67
2023/06/20 03:41:48;;;;;;;3.95;1.80;;;;;;;19.92;60.56;99512.31;10512577;28;20040;-66
2023/06/20 03:46:50;;;;;;;3.83;2.20;;;;;;;19.65;60.73;99512.50;10488895;28;20040;-67
2023/06/20 03:51:52;;;;;;;3.20;1.92;;;;;;;19.47;61.53;99517.06;10495867;28;20048;-67
2023/06/20 03:56:55;;;;;;;3.03;1.88;;;;;;;19.55;61.42;99521.56;10491972;28;20036;-67
2023/06/20 04:01:57;;;;;;;5.55;1.80;;;;;;;19.78;61.33;99507.59;10495020;28;20040;-67
2023/06/20 04:06:59;;;;;;;3.88;2.17;;;;;;;19.96;60.60;99515.47;10471402;28;20411;-67
2023/06/20 04:12:01;;;;;;;3.05;1.90;;;;;;;20.04;60.86;99520.81;10495346;28;20044;-67
2023/06/20 04:17:04;;;;;;;3.10;1.90;;;;;;;20.10;61.11;99530.78;10494692;28;20506;-67
2023/06/20 04:22:06;;;;;;;4.00;1.88;;;;;;;20.12;60.88;99542.06;10512702;28;20117;-67
2023/06/20 04:27:08;;;;;;;3.75;2.00;;;;;;;20.28;60.62;99536.78;10494471;28;20043;-67
2023/06/20 04:32:10;;;;;;;3.92;2.10;;;;;;;20.45;60.28;99527.03;10525897;28;20105;-67
2023/06/20 04:37:12;;;;;;;3.38;2.10;;;;;;;20.64;60.10;99532.06;10493943;28;20044;-67
2023/06/20 04:42:15;;;;;;;3.60;2.05;;;;;;;20.80;59.67;99546.22;10492451;28;20048;-67
2023/06/20 04:47:17;;;;;;;3.42;1.92;;;;;;;20.72;59.64;99567.44;10491808;28;20056;-66
2023/06/20 04:52:19;;;;;;;3.78;2.03;;;;;;;20.60;59.71;99576.72;10488080;28;20052;-67
2023/06/20 04:57:21;;;;;;;5.82;2.00;;;;;;;20.47;59.68;99588.78;10510105;28;20117;-67
2023/06/20 05:02:23;;;;;;;5.00;2.08;;;;;;;20.31;59.86;99596.72;10509067;28;20528;-67
2023/06/20 05:07:25;;;;;;;3.53;1.90;;;;;;;20.25;59.78;99577.78;10526395;28;20051;-67
2023/06/20 05:12:27;;;;;;;3.58;2.08;;;;;;;20.23;59.68;99569.13;10494506;28;20414;-67
2023/06/20 05:17:29;;;;;;;3.40;1.80;;;;;;;20.45;59.44;99575.69;10509838;28;20125;-67
2023/06/20 05:22:31;;;;;;;4.00;1.75;;;;;;;20.49;59.44;99576.19;10503171;28;20048;-67
2023/06/20 05:27:33;;;;;;;4.05;1.90;;;;;;;20.45;59.30;99578.34;10496457;28;20070;-67
2023/06/20 05:32:34;;;;;;;4.50;2.20;;;;;;;20.44;60.23;99589.94;10502344;28;20312;-66
2023/06/20 05:37:37;;;;;;;3.63;1.80;;;;;;;20.44;60.26;99589.94;10496484;28;20047;-67
2023/06/20 05:42:38;;;;;;;3.90;2.03;;;;;;;20.36;60.29;99583.81;10508441;28;20101;-67
2023/06/20 05:47:40;;;;;;;3.65;1.98;;;;;;;20.16;60.58;99592.03;10480251;28;20059;-66
2023/06/20 05:52:42;;;;;;;3.97;1.90;;;;;;;20.17;60.40;99584.91;10506252;28;20039;-67
2023/06/20 05:57:44;;;;;;;3.88;1.80;;;;;;;20.52;60.71;99579.34;10506904;28;20068;-67
2023/06/20 06:02:46;;;;;;;2.80;1.75;;;;;;;20.81;59.92;99585.06;10506002;28;20067;-67
2023/06/20 06:07:48;;;;;;;3.55;1.80;;;;;;;20.94;59.96;99592.56;10485783;28;20064;-67
2023/06/20 06:12:50;;;;;;;3.22;1.90;;;;;;;21.03;59.47;99597.69;10474873;28;20491;-67
2023/06/20 06:17:52;;;;;;;3.22;1.80;;;;;;;21.11;59.56;99594.19;10477097;28;20348;-67
2023/06/20 06:22:54;;;;;;;2.78;1.73;;;;;;;22.00;58.06;99592.22;10510327;28;20136;-67
2023/06/20 06:27:56;;;;;;;3.33;1.88;;;;;;;22.59;56.73;99590.78;10495322;28;20051;-67
2023/06/20 06:32:57;;;;;;;3.33;1.80;;;;;;;23.96;54.24;99582.38;10513773;28;20047;-67
2023/06/20 06:37:59;;;;;;;3.65;1.90;;;;;;;24.47;52.99;99579.75;10501436;28;20071;-67
2023/06/20 06:43:01;;;;;;;4.25;2.20;;;;;;;24.62;52.14;99572.50;10502625;28;20135;-67
2023/06/20 06:48:03;;;;;;;3.47;1.90;;;;;;;25.87;51.14;99562.63;10521061;28;20539;-66
2023/06/20 06:53:05;;;;;;;3.17;1.90;;;;;;;27.10;49.26;99576.63;10480117;28;20044;-66
2023/06/20 06:58:07;;;;;;;2.97;1.77;;;;;;;28.17;47.29;99560.97;10486262;28;20119;-66
2023/06/20 07:03:10;;;;;;;3.08;1.88;;;;;;;28.26;46.30;99562.38;10504180;28;20587;-66
2023/06/20 07:08:12;;;;;;;3.70;2.05;;;;;;;29.17;44.38;99554.78;10511677;28;20036;-66
2023/06/20 07:13:14;;;;;;;3.38;2.10;;;;;;;30.02;43.10;99538.59;10516354;28;20149;-66
2023/06/20 07:18:16;;;;;;;3.30;1.90;;;;;;;29.47;42.88;99539.63;10513988;28;20549;-66
2023/06/20 07:23:18;;;;;;;3.58;2.03;;;;;;;30.14;42.34;99541.34;10514999;28;20044;-65
2023/06/20 07:28:20;;;;;;;3.80;2.30;;;;;;;30.78;40.91;99535.28;10513301;28;20126;-65
2023/06/20 07:33:21;;;;;;;5.05;2.35;;;;;;;30.15;40.29;99543.81;10529397;28;20143;-66
2023/06/20 07:38:23;;;;;;;4.47;2.47;;;;;;;29.43;41.57;99536.53;10515375;28;20208;-64
2023/06/20 07:43:25;;;;;;;3.65;2.35;;;;;;;30.35;40.13;99541.69;10511329;28;20135;-65
2023/06/20 07:48:29;;;;;;;3.60;2.30;;;;;;;29.97;40.80;99537.66;10515140;28;20219;-66
2023/06/20 07:53:31;;;;;;;3.92;2.30;;;;;;;29.83;41.28;99536.94;10490260;28;20044;-66
2023/06/20 07:58:33;;;;;;;4.97;2.88;;;;;;;30.34;40.15;99521.16;10493785;28;20068;-65
2023/06/20 08:03:35;;;;;;;4.70;2.70;;;;;;;30.86;39.54;99518.75;10510421;28;20120;-66
2023/06/20 08:08:38;;;;;;;5.78;2.80;;;;;;;29.74;40.23;99517.53;10515537;28;20048;-65
2023/06/20 08:13:39;;;;;;;4.47;2.60;;;;;;;30.33;39.37;99516.81;10510929;28;20215;-65
2023/06/20 08:18:41;;;;;;;4.97;2.72;;;;;;;30.51;39.15;99522.19;10515038;28;20068;-65
2023/06/20 08:23:45;;;;;;;4.35;2.60;;;;;;;30.49;39.35;99520.78;10514309;28;20098;-65
2023/06/20 08:28:47;;;;;;;3.65;2.50;;;;;;;30.36;39.30;99519.03;10480060;28;20105;-65
2023/06/20 08:33:49;;;;;;;5.15;3.00;;;;;;;31.14;38.36;99513.50;10514135;28;20097;-65
2023/06/20 08:38:50;;;;;;;4.82;2.88;;;;;;;31.05;38.23;99509.50;10496768;28;20130;-65
2023/06/20 08:43:52;;;;;;;4.53;2.95;;;;;;;30.51;38.76;99497.06;10509650;28;20083;-66
2023/06/20 08:48:54;;;;;;;4.28;2.90;;;;;;;30.04;39.71;99497.91;10513359;28;20094;-66
2023/06/20 08:53:58;;;;;;;4.32;2.78;;;;;;;29.94;39.85;99490.38;10512264;28;20678;-65
2023/06/20 08:59:00;;;;;;;4.25;2.67;;;;;;;30.36;39.56;99489.38;10499968;28;20350;-66
2023/06/20 09:04:02;;;;;;;5.05;3.08;;;;;;;30.61;39.25;99487.38;10493977;28;20090;-65
2023/06/20 09:09:14;;;;;;;5.20;3.20;;;;;;;30.95;38.44;99496.56;10512975;28;20040;-66
2023/06/20 09:14:16;;;;;;;5.63;3.25;;;;;;;31.36;38.54;99482.13;10511775;28;20048;-66
2023/06/20 09:19:18;;;;;;;5.40;3.10;;;;;;;31.38;38.04;99488.94;10527998;28;20075;-65
2023/06/20 09:24:20;;;;;;;11.13;3.47;;;;;;;29.64;40.02;99484.09;10492342;28;20149;-65
2023/06/20 09:29:22;;;;;;;4.32;2.70;;;;;;;29.70;40.35;99483.19;10510424;28;20055;-65
2023/06/20 09:34:24;;;;;;;5.50;3.25;;;;;;;30.09;39.53;99490.78;10509945;28;20040;-65
2023/06/20 09:39:25;;;;;;;4.90;3.10;;;;;;;30.78;39.16;99483.97;10511942;28;20127;-65
2023/06/20 09:44:28;;;;;;;4.80;3.13;;;;;;;30.19;39.22;99490.25;10510756;28;20071;-65
2023/06/20 09:49:30;;;;;;;4.18;2.80;;;;;;;30.33;39.44;99481.75;10493117;28;20518;-65
2023/06/20 09:54:42;;;;;;;4.65;2.97;;;;;;;30.25;38.71;99476.69;10509725;28;20524;-65
2023/06/20 09:59:46;;;;;;;5.38;3.15;;;;;;;29.72;39.85;99481.88;10510604;28;20327;-65
2023/06/20 10:04:49;;;;;;;5.20;3.00;;;;;;;29.71;39.73;99480.25;10509223;28;20486;-65
2023/06/20 10:09:56;;;;;;;5.15;3.22;;;;;;;29.09;40.54;99477.81;10510232;28;20079;-65
2023/06/20 10:15:00;;;;;;;4.20;2.70;;;;;;;30.07;39.54;99463.22;10508836;28;20051;-65
2023/06/20 10:20:07;;;;;;;4.25;2.78;;;;;;;30.68;38.44;99462.97;10475069;28;20044;-65
2023/06/20 10:25:13;;;;;;;4.90;2.90;;;;;;;30.79;38.18;99470.25;10511098;28;20405;-64
2023/06/20 10:30:15;;;;;;;4.65;2.63;;;;;;;30.30;38.96;99468.69;10509962;28;20484;-65
2023/06/20 10:35:17;;;;;;;4.65;3.00;;;;;;;30.75;38.03;99465.53;10509696;28;20121;-65
2023/06/20 10:40:31;;;;;;;4.20;2.70;;;;;;;31.47;37.30;99454.28;10509915;28;20055;-65
2023/06/20 10:45:34;;;;;;;4.80;3.03;;;;;;;31.17;37.79;99449.03;10510404;28;20587;-65
2023/06/20 10:50:36;;;;;;;4.63;2.95;;;;;;;30.16;38.49;99453.75;10508316;28;20051;-65
2023/06/20 10:55:42;;;;;;;5.25;2.83;;;;;;;30.51;38.25;99449.31;10509860;28;20048;-65
2023/06/20 11:00:44;;;;;;;4.43;2.83;;;;;;;30.47;38.33;99445.44;10509447;28;20071;-65
2023/06/20 11:05:50;;;;;;;4.35;2.53;;;;;;;30.65;37.64;99437.25;10509009;28;20476;-65
2023/06/20 11:10:52;;;;;;;5.47;2.70;;;;;;;30.09;38.22;99433.34;10508882;28;20088;-65
2023/06/20 11:15:54;;;;;;;4.88;2.65;;;;;;;29.75;38.49;99426.69;10509400;28;20109;-65
2023/06/20 11:20:58;;;;;;;3.90;2.55;;;;;;;29.18;39.15;99422.59;10508034;28;20044;-65
2023/06/20 11:26:00;;;;;;;4.22;2.72;;;;;;;29.30;38.61;99422.66;10490696;28;20093;-65
2023/06/20 11:31:13;;;;;;;3.95;2.58;;;;;;;29.14;39.02;99424.09;10490532;28;20052;-65
2023/06/20 11:36:16;;;;;;;4.30;2.70;;;;;;;29.19;38.89;99426.13;10490959;28;20131;-65
2023/06/20 11:41:18;;;;;;;4.15;2.63;;;;;;;29.77;38.26;99424.59;10508974;28;20048;-65
2023/06/20 11:46:20;;;;;;;3.90;2.33;;;;;;;29.89;37.30;99422.78;10508149;28;20147;-65
2023/06/20 11:51:24;;;;;;;4.57;2.42;;;;;;;30.13;36.56;99411.03;10510205;28;20048;-64
2023/06/20 11:56:26;;;;;;;4.20;2.50;;;;;;;29.79;37.01;99403.63;10515519;28;20504;-65
2023/06/20 12:01:28;;;;;;;3.30;2.05;;;;;;;29.82;36.44;99398.63;10515898;28;20083;-65
2023/06/20 12:06:36;;;;;;;4.75;2.40;;;;;;;29.72;36.51;99397.53;10514878;28;20036;-65
2023/06/20 12:11:56;;;;;;;3.43;2.23;;;;;;;29.94;35.42;99393.31;10515557;28;20055;-65
2023/06/20 12:16:59;;;;;;;2.97;1.80;;;;;;;30.45;35.32;99392.72;10514866;28;20143;-65
2023/06/20 12:22:03;;;;;;;3.22;2.08;;;;;;;30.48;35.04;99393.09;10513721;28;20517;-65
2023/06/20 12:27:05;;;;;;;3.50;2.25;;;;;;;30.46;35.17;99384.41;10514056;28;20416;-65
2023/06/20 12:32:09;;;;;;;3.72;2.50;;;;;;;30.37;34.83;99380.41;10496231;28;20560;-65
2023/06/20 12:37:11;;;;;;;4.93;2.53;;;;;;;31.06;33.42;99376.09;10509230;28;20127;-65
2023/06/20 12:42:16;;;;;;;3.63;2.38;;;;;;;31.64;33.12;99355.16;10505973;28;20713;-65
2023/06/20 12:47:17;;;;;;;3.28;2.15;;;;;;;31.69;32.86;99346.31;10503001;28;20249;-65
2023/06/20 12:52:20;;;;;;;4.53;2.35;;;;;;;31.79;32.31;99346.50;10513025;28;20044;-65
2023/06/20 12:57:25;;;;;;;3.33;2.13;;;;;;;32.08;32.42;99343.56;10514058;28;20105;-65
2023/06/20 13:02:27;;;;;;;3.50;2.20;;;;;;;31.74;31.47;99344.53;10497916;28;20138;-65
2023/06/20 13:07:29;;;;;;;4.07;2.20;;;;;;;31.89;31.48;99341.28;10505450;28;20040;-65
2023/06/20 13:12:32;;;;;;;3.92;2.22;;;;;;;31.89;32.09;99331.28;10498237;28;20046;-65
2023/06/20 13:17:36;;;;;;;3.55;2.30;;;;;;;32.30;30.85;99337.41;10497712;28;20391;-65
2023/06/20 13:22:39;;;;;;;4.47;2.13;;;;;;;32.14;31.32;99339.06;10498873;28;20056;-65
2023/06/20 13:27:42;;;;;;;2.60;1.80;;;;;;;32.57;30.11;99341.97;10496579;28;20048;-65
2023/06/20 13:32:44;;;;;;;2.97;2.00;;;;;;;32.83;29.56;99332.28;10498197;28;20492;-65
2023/06/20 13:37:46;;;;;;;3.28;1.70;;;;;;;32.93;29.35;99329.72;10484222;28;20058;-65
2023/06/20 13:42:48;;;;;;;3.58;1.92;;;;;;;32.82;29.17;99331.47;10483690;28;20147;-65
2023/06/20 13:47:51;;;;;;;3.05;2.10;;;;;;;32.56;29.43;99315.94;10488580;28;20423;-65
2023/06/20 13:52:53;;;;;;;3.20;1.98;;;;;;;32.94;29.37;99307.78;10496758;28;20557;-65
2023/06/20 13:57:54;;;;;;;2.95;1.92;;;;;;;32.63;29.12;99304.94;10502374;28;20135;-65
2023/06/20 14:02:56;;;;;;;4.32;2.08;;;;;;;32.44;29.48;99306.22;10474403;28;20040;-65
2023/06/20 14:07:59;;;;;;;5.68;2.10;;;;;;;32.80;28.70;99300.31;10502016;28;20104;-64
2023/06/20 14:13:01;;;;;;;3.35;2.10;;;;;;;33.02;28.68;99296.53;10497486;28;20067;-65
2023/06/20 14:18:02;;;;;;;4.57;2.10;;;;;;;33.15;29.13;99291.81;10504209;28;20383;-64
2023/06/20 14:23:04;;;;;;;2.80;1.92;;;;;;;32.94;28.72;99290.75;10468477;28;20048;-64
2023/06/20 14:28:06;;;;;;;3.47;2.10;;;;;;;32.91;29.24;99285.81;10502467;28;20630;-65
2023/06/20 14:33:08;;;;;;;3.20;1.75;;;;;;;33.12;28.93;99281.50;10485222;28;20075;-65
2023/06/20 14:38:10;;;;;;;4.18;2.10;;;;;;;32.64;29.26;99276.78;10501705;28;20051;-64
2023/06/20 14:43:11;;;;;;;3.28;2.00;;;;;;;32.32;29.96;99275.75;10503186;28;20460;-64
2023/06/20 14:48:13;;;;;;;3.53;2.17;;;;;;;32.52;29.02;99266.06;10505073;28;20044;-64
2023/06/20 14:53:15;;;;;;;2.55;1.90;;;;;;;32.39;29.26;99260.16;10500920;28;20093;-64
2023/06/20 14:58:17;;;;;;;3.35;2.20;;;;;;;32.09;29.58;99255.09;10500208;28;20044;-64
2023/06/20 15:03:20;;;;;;;3.38;2.00;;;;;;;32.14;29.81;99264.13;10479304;28;20044;-65
2023/06/20 15:08:22;;;;;;;3.60;2.05;;;;;;;32.63;29.73;99262.44;10501694;28;20072;-65
2023/06/20 15:13:26;;;;;;;3.20;1.98;;;;;;;33.13;29.19;99254.13;10479593;28;20051;-65
2023/06/20 15:18:28;;;;;;;3.72;2.30;;;;;;;33.00;28.50;99241.78;10503951;28;20040;-66
2023/06/20 15:23:32;;;;;;;3.65;2.13;;;;;;;32.70;29.19;99245.97;10496878;28;20070;-65
2023/06/20 15:28:34;;;;;;;3.60;2.15;;;;;;;32.43;29.61;99243.19;10511621;28;20054;-65
2023/06/20 15:33:36;;;;;;;4.25;2.10;;;;;;;31.98;30.46;99242.47;10508522;28;20048;-65
2023/06/20 15:38:37;;;;;;;3.20;1.98;;;;;;;32.05;30.43;99237.72;10510986;28;20511;-65
2023/06/20 15:43:41;;;;;;;5.10;2.20;;;;;;;32.00;30.36;99233.06;10506521;28;20055;-65
2023/06/20 15:48:57;;;;;;;4.28;2.10;;;;;;;31.71;30.48;99234.19;10490067;28;20059;-65
2023/06/20 15:53:58;;;;;;;3.92;2.22;;;;;;;31.42;30.92;99232.53;10502313;28;20139;-65
2023/06/20 15:59:00;;;;;;;3.30;2.20;;;;;;;31.36;30.93;99228.09;10511978;28;20565;-65
2023/06/20 16:04:02;;;;;;;3.28;2.00;;;;;;;31.41;31.14;99218.19;10506217;28;20040;-65
2023/06/20 16:09:04;;;;;;;4.07;2.30;;;;;;;31.16;31.54;99222.34;10507658;28;20078;-65
2023/06/20 16:14:06;;;;;;;4.78;1.98;;;;;;;31.13;31.91;99212.03;10506313;28;20076;-65
2023/06/20 16:19:08;;;;;;;4.35;2.30;;;;;;;30.98;32.74;99212.56;10509730;28;20295;-65
2023/06/20 16:24:09;;;;;;;3.97;2.22;;;;;;;30.90;32.58;99209.38;10480222;28;20124;-66
2023/06/20 16:29:11;;;;;;;3.75;2.30;;;;;;;31.08;32.65;99201.13;10490745;28;20044;-65
2023/06/20 16:34:13;;;;;;;3.70;1.83;;;;;;;31.13;33.01;99199.31;10506127;28;20439;-65
2023/06/20 16:39:15;;;;;;;3.47;2.10;;;;;;;31.10;32.94;99207.09;10509374;28;20122;-65
2023/06/20 16:44:17;;;;;;;4.05;2.33;;;;;;;30.98;33.40;99201.75;10507254;28;20604;-65
2023/06/20 16:49:18;;;;;;;3.50;2.10;;;;;;;30.86;33.48;99205.50;10509666;28;20063;-65
2023/06/20 16:54:20;;;;;;;5.47;2.20;;;;;;;30.72;33.64;99199.59;10503068;28;20488;-65
2023/06/20 16:59:24;;;;;;;4.15;2.03;;;;;;;30.85;33.77;99180.38;10504482;28;20147;-65
2023/06/20 17:04:25;;;;;;;4.18;2.20;;;;;;;30.98;32.93;99192.81;10501074;28;20075;-65
2023/06/20 17:09:27;;;;;;;3.70;2.20;;;;;;;30.97;32.99;99183.88;10505483;28;20566;-65
2023/06/20 17:14:29;;;;;;;3.10;1.90;;;;;;;30.89;32.82;99180.72;10484434;28;20500;-65
2023/06/20 17:19:31;;;;;;;3.72;2.00;;;;;;;30.77;33.30;99183.47;10500508;28;20190;-65
2023/06/20 17:24:33;;;;;;;4.05;2.15;;;;;;;30.69;33.40;99173.03;10499738;28;20167;-65
2023/06/20 17:29:35;;;;;;;4.13;2.35;;;;;;;30.42;33.93;99172.72;10480551;28;20067;-65
2023/06/20 17:34:37;;;;;;;5.65;2.40;;;;;;;29.68;34.47;99178.81;10502652;28;20088;-65
2023/06/20 17:39:38;;;;;;;4.63;2.65;;;;;;;29.04;36.17;99190.34;10503535;28;20079;-65
2023/06/20 17:44:40;;;;;;;5.03;2.78;;;;;;;28.68;36.86;99201.16;10498567;28;20547;-65
2023/06/20 17:49:45;;;;;;;4.78;2.67;;;;;;;28.64;36.31;99210.72;10501293;28;20052;-66
2023/06/20 17:54:49;;;;;;;3.88;2.55;;;;;;;28.47;36.57;99208.84;10480115;28;20139;-65
2023/06/20 17:59:50;;;;;;;4.15;2.70;;;;;;;28.48;36.84;99230.16;10481582;28;20479;-65
2023/06/20 18:04:52;;;;;;;4.90;2.83;;;;;;;28.42;38.74;99327.06;10492297;28;20036;-65
2023/06/20 18:09:54;;;;;;;4.55;2.42;;;;;;;27.71;40.38;99337.25;10498931;28;20055;-65
2023/06/20 18:14:56;;;;;;;5.15;2.53;;;;;;;27.20;41.12;99346.16;10511642;28;20048;-65
2023/06/20 18:19:58;;;;;;;4.07;2.50;;;;;;;26.93;41.82;99325.81;10499604;28;20408;-65
2023/06/20 18:25:00;;;;;;;3.70;2.65;;;;;;;26.74;42.15;99321.31;10495162;28;20108;-65
2023/06/20 18:30:03;;;;;;;4.30;2.72;;;;;;;26.62;42.61;99310.41;10498332;28;20052;-65
2023/06/20 18:35:07;;;;;;;4.00;2.58;;;;;;;25.94;44.18;99316.13;10480140;28;20521;-65
2023/06/20 18:40:10;;;;;;;4.18;2.42;;;;;;;25.51;45.61;99315.66;10498249;28;20063;-65
2023/06/20 18:45:11;;;;;;;5.25;2.83;;;;;;;25.37;45.83;99313.97;10482931;28;20510;-65
2023/06/20 18:50:13;;;;;;;5.00;2.65;;;;;;;25.44;46.30;99324.69;10494093;28;20644;-65
2023/06/20 18:55:15;;;;;;;4.78;2.90;;;;;;;24.93;47.60;99335.78;10497542;28;20048;-65
2023/06/20 19:00:17;;;;;;;6.45;2.97;;;;;;;24.83;48.70;99321.94;10497915;28;20153;-67
2023/06/20 19:05:19;;;;;;;5.13;2.70;;;;;;;25.06;48.21;99332.34;10485835;28;20048;-64
2023/06/20 19:10:21;;;;;;;4.05;2.78;;;;;;;25.24;48.26;99346.03;10500201;28;20469;-65
2023/06/20 19:15:23;;;;;;;5.90;2.90;;;;;;;25.33;48.18;99350.16;10503954;28;20051;-65
2023/06/20 19:20:24;;;;;;;5.38;3.08;;;;;;;25.33;48.38;99366.22;10482845;28;20052;-65
2023/06/20 19:25:27;;;;;;;4.82;2.90;;;;;;;25.35;48.42;99379.44;10490057;28;20128;-65
2023/06/20 19:30:30;;;;;;;5.25;2.85;;;;;;;24.88;49.77;99377.50;10506675;28;20076;-65
2023/06/20 19:35:32;;;;;;;5.35;2.85;;;;;;;24.75;50.38;99388.97;10506813;28;20048;-65
2023/06/20 19:40:34;;;;;;;5.40;2.90;;;;;;;24.70;50.79;99395.88;10473392;28;20503;-65
2023/06/20 19:45:36;;;;;;;4.65;2.72;;;;;;;24.72;50.53;99389.34;10508115;28;20102;-65
2023/06/20 19:50:41;;;;;;;6.63;3.00;;;;;;;24.61;50.97;99394.38;10507473;28;20139;-65
2023/06/20 19:55:43;;;;;;;4.50;2.65;;;;;;;24.61;50.90;99397.06;10507666;28;20125;-66
2023/06/20 20:00:47;;;;;;;4.47;2.60;;;;;;;24.59;51.07;99404.44;10501404;28;20126;-66
2023/06/20 20:05:50;;;;;;;4.80;2.60;;;;;;;24.40;52.01;99421.13;10505623;28;20077;-65
2023/06/20 20:10:51;;;;;;;4.63;2.83;;;;;;;24.16;52.06;99436.53;10505061;28;20528;-66
2023/06/20 20:15:53;;;;;;;4.13;2.53;;;;;;;23.96;52.66;99440.00;10515551;28;20048;-65
2023/06/20 20:20:57;;;;;;;3.90;2.60;;;;;;;23.87;52.76;99433.94;10512966;28;20048;-65
2023/06/20 20:25:58;;;;;;;4.50;2.65;;;;;;;23.90;53.06;99451.44;10514719;28;20068;-65
2023/06/20 20:31:00;;;;;;;4.85;2.75;;;;;;;23.84;53.06;99454.88;10513545;28;20109;-65
2023/06/20 20:36:02;;;;;;;6.07;3.00;;;;;;;23.85;52.95;99462.69;10495258;28;20157;-66
2023/06/20 20:41:04;;;;;;;4.50;2.83;;;;;;;23.77;53.03;99469.97;10512350;28;20051;-66
2023/06/20 20:46:06;;;;;;;5.63;2.70;;;;;;;23.69;53.29;99470.91;10513835;28;20044;-66
2023/06/20 20:51:08;;;;;;;4.47;2.80;;;;;;;23.64;53.11;99473.28;10478548;28;20208;-66
2023/06/20 20:56:10;;;;;;;4.78;2.83;;;;;;;23.55;53.70;99482.44;10478376;28;20117;-66
2023/06/20 21:01:12;;;;;;;4.75;3.17;;;;;;;23.49;53.41;99485.84;10492996;28;20120;-66
2023/06/20 21:06:14;;;;;;;5.75;3.03;;;;;;;23.29;54.05;99493.53;10491653;28;20116;-66
2023/06/20 21:11:15;;;;;;;7.22;2.72;;;;;;;23.16;53.82;99492.50;10493406;28;20129;-67
2023/06/20 21:16:17;;;;;;;5.75;2.90;;;;;;;23.12;54.10;99480.53;10508295;28;20074;-66
2023/06/20 21:21:19;;;;;;;4.30;2.78;;;;;;;23.10;54.22;99501.25;10505749;28;20051;-67
2023/06/20 21:26:24;;;;;;;4.78;2.90;;;;;;;23.03;54.13;99522.47;10507042;28;20048;-67
2023/06/20 21:31:26;;;;;;;3.97;2.60;;;;;;;22.97;54.16;99517.03;10501989;28;20138;-66
2023/06/20 21:36:28;;;;;;;5.53;3.03;;;;;;;22.88;54.34;99518.13;10500602;28;20313;-66
2023/06/20 21:41:30;;;;;;;5.60;2.60;;;;;;;22.83;54.43;99523.16;10504330;28;20043;-67
2023/06/20 21:46:32;;;;;;;5.35;3.00;;;;;;;22.67;54.58;99526.75;10481271;28;20183;-67
2023/06/20 21:51:34;;;;;;;5.45;2.90;;;;;;;22.67;54.67;99537.41;10489988;28;20078;-67
2023/06/20 21:56:36;;;;;;;4.88;2.80;;;;;;;22.53;54.66;99544.34;10507244;28;20097;-66
2023/06/20 22:01:38;;;;;;;5.28;2.95;;;;;;;22.41;54.84;99556.41;10505250;28;20083;-66
2023/06/20 22:06:40;;;;;;;4.28;2.85;;;;;;;22.29;55.04;99571.13;10498995;28;20040;-66
2023/06/20 22:11:43;;;;;;;4.55;2.60;;;;;;;22.15;55.28;99566.53;10500286;28;20196;-66
2023/06/20 22:16:44;;;;;;;5.60;2.80;;;;;;;22.16;55.69;99565.56;10509484;28;20131;-67
2023/06/20 22:21:46;;;;;;;4.75;2.88;;;;;;;22.09;55.30;99563.78;10485416;28;20113;-67
2023/06/20 22:26:48;;;;;;;4.97;2.75;;;;;;;22.07;55.66;99561.25;10501609;28;20265;-66
2023/06/20 22:31:51;;;;;;;5.13;2.90;;;;;;;22.01;55.58;99566.41;10478274;28;20051;-66
2023/06/20 22:36:52;;;;;;;3.88;2.50;;;;;;;22.03;55.47;99570.59;10474246;28;20047;-67
2023/06/20 22:41:54;;;;;;;4.00;2.40;;;;;;;22.03;55.22;99569.72;10489008;28;20096;-66
2023/06/20 22:46:56;;;;;;;4.13;2.67;;;;;;;21.95;55.07;99577.75;10475259;28;20567;-67
2023/06/20 22:51:59;;;;;;;4.63;2.53;;;;;;;21.91;55.43;99582.59;10511129;27;20051;-66
2023/06/20 22:57:00;;;;;;;3.97;2.65;;;;;;;21.92;55.20;99591.44;10506658;28;20518;-66
2023/06/20 23:02:02;;;;;;;4.20;2.78;;;;;;;21.78;55.63;99598.31;10495164;28;20445;-67
2023/06/20 23:07:04;;;;;;;5.10;2.80;;;;;;;21.79;55.49;99602.59;10479130;28;20560;-66
2023/06/20 23:12:08;;;;;;;4.38;2.58;;;;;;;21.75;55.44;99625.25;10501899;28;20063;-66
2023/06/20 23:17:09;;;;;;;3.92;2.78;;;;;;;21.52;55.87;99625.13;10493022;28;20139;-67
2023/06/20 23:22:11;;;;;;;4.20;2.60;;;;;;;21.23;56.18;99630.13;10474070;28;20048;-66
2023/06/20 23:27:13;;;;;;;6.78;2.88;;;;;;;21.13;56.74;99641.91;10499335;28;20916;-66